Time;durP1;ratioP1;P1;durP2;ratioP2;P2;SDS_P1;SDS_P2;PMS_P1;PMS_P2;Temp;Humidity;BMP_temperature;BMP_pressure;BME280_temperature;BME280_humidity;BME280_pressure;Samples;Min_cycle;Max_cycle;Signal;HPM_P1;HPM_P2
2023/05/20 00:01:42;;;;;;;0.60;0.40;;;15.00;99.90;;;;;;4954559;28;20230;-65
2023/05/20 00:04:10;;;;;;;0.63;0.50;;;15.00;99.90;;;;;;4969064;28;20218;-66
2023/05/20 00:06:38;;;;;;;0.80;0.60;;;14.90;99.90;;;;;;4972771;28;20297;-66
2023/05/20 00:09:06;;;;;;;0.70;0.50;;;15.00;99.90;;;;;;4972172;28;20218;-66
2023/05/20 00:11:34;;;;;;;1.02;0.88;;;14.90;99.90;;;;;;4972211;28;20210;-67
2023/05/20 00:14:02;;;;;;;0.60;0.50;;;14.90;99.90;;;;;;4972842;28;20222;-67
2023/05/20 00:16:30;;;;;;;0.70;0.52;;;14.90;99.90;;;;;;4972862;28;20218;-63
2023/05/20 00:18:59;;;;;;;0.60;0.50;;;14.90;99.90;;;;;;4973058;28;20202;-65
2023/05/20 00:21:28;;;;;;;0.60;0.50;;;14.90;99.90;;;;;;4972488;28;20225;-65
2023/05/20 00:23:56;;;;;;;0.70;0.57;;;14.90;99.90;;;;;;4972717;28;20639;-65
2023/05/20 00:26:24;;;;;;;0.80;0.60;;;14.90;99.90;;;;;;4972929;28;20265;-65
2023/05/20 00:28:52;;;;;;;0.60;0.40;;;14.90;99.90;;;;;;4965167;28;20207;-65
2023/05/20 00:31:20;;;;;;;0.57;0.45;;;14.80;99.90;;;;;;4965561;28;20203;-65
2023/05/20 00:33:48;;;;;;;0.70;0.57;;;14.80;99.90;;;;;;4971222;28;20224;-63
2023/05/20 00:36:18;;;;;;;0.80;0.60;;;14.80;99.90;;;;;;4972802;28;20226;-65
2023/05/20 00:38:45;;;;;;;1.42;1.02;;;14.80;99.90;;;;;;4972116;28;20206;-66
2023/05/20 00:41:13;;;;;;;1.50;0.90;;;14.80;99.90;;;;;;4972456;28;20552;-67
2023/05/20 00:43:41;;;;;;;0.95;0.50;;;14.70;99.90;;;;;;4972085;28;20207;-65
2023/05/20 00:46:10;;;;;;;0.50;0.30;;;14.80;99.90;;;;;;4972576;28;20202;-66
2023/05/20 00:48:41;;;;;;;0.60;0.52;;;14.70;99.90;;;;;;4972282;28;20234;-66
2023/05/20 00:51:10;;;;;;;0.93;0.70;;;14.70;99.90;;;;;;4972568;28;20210;-66
2023/05/20 00:53:40;;;;;;;0.60;0.40;;;14.70;99.90;;;;;;4971608;28;20265;-67
2023/05/20 00:56:08;;;;;;;0.60;0.50;;;14.60;99.90;;;;;;4972328;28;20246;-65
2023/05/20 00:58:38;;;;;;;0.70;0.57;;;14.60;99.90;;;;;;4971938;28;20239;-65
2023/05/20 01:01:06;;;;;;;0.60;0.47;;;14.60;99.90;;;;;;4958941;28;20207;-66
2023/05/20 01:03:34;;;;;;;0.70;0.50;;;14.60;99.90;;;;;;4961143;28;20198;-67
2023/05/20 01:06:03;;;;;;;0.90;0.65;;;14.50;99.90;;;;;;4972200;28;20257;-67
2023/05/20 01:08:31;;;;;;;0.80;0.70;;;14.50;99.90;;;;;;4971697;28;20229;-66
2023/05/20 01:11:05;;;;;;;0.60;0.40;;;14.50;99.90;;;;;;4972673;28;20206;-66
2023/05/20 01:13:40;;;;;;;0.60;0.52;;;14.50;99.90;;;;;;4971488;28;20288;-66
2023/05/20 01:16:10;;;;;;;0.60;0.47;;;14.40;99.90;;;;;;4971798;28;20210;-67
2023/05/20 01:18:42;;;;;;;0.70;0.60;;;14.40;99.90;;;;;;4971822;28;20273;-66
2023/05/20 01:21:13;;;;;;;0.85;0.50;;;14.30;99.90;;;;;;4972025;28;20613;-66
2023/05/20 01:23:43;;;;;;;0.60;0.50;;;14.30;99.90;;;;;;4963236;28;20258;-66
2023/05/20 01:26:12;;;;;;;0.60;0.60;;;14.30;99.90;;;;;;4972078;28;20261;-66
2023/05/20 01:28:42;;;;;;;1.33;0.70;;;14.30;99.90;;;;;;4971462;28;20298;-66
2023/05/20 01:31:15;;;;;;;0.60;0.57;;;14.30;99.90;;;;;;4963901;28;20700;-66
2023/05/20 01:33:44;;;;;;;0.70;0.60;;;14.30;99.90;;;;;;4971337;28;20704;-66
2023/05/20 01:36:13;;;;;;;0.60;0.50;;;14.20;99.90;;;;;;4971888;28;20206;-67
2023/05/20 01:38:43;;;;;;;0.70;0.50;;;14.20;99.90;;;;;;4971187;28;20309;-66
2023/05/20 01:41:12;;;;;;;1.20;0.70;;;14.20;99.90;;;;;;4971831;28;20283;-65
2023/05/20 01:43:40;;;;;;;0.60;0.40;;;14.10;99.90;;;;;;4969359;28;20206;-67
2023/05/20 01:46:08;;;;;;;0.70;0.60;;;14.00;99.90;;;;;;4968307;28;20214;-65
2023/05/20 01:48:37;;;;;;;0.60;0.55;;;14.00;99.90;;;;;;4968523;28;20223;-65
2023/05/20 01:51:05;;;;;;;0.60;0.52;;;14.00;99.90;;;;;;4967261;28;20206;-66
2023/05/20 01:53:33;;;;;;;1.08;0.65;;;14.00;99.90;;;;;;4968138;28;20206;-65
2023/05/20 01:56:02;;;;;;;0.70;0.60;;;13.90;99.90;;;;;;4965635;28;20213;-66
2023/05/20 01:58:30;;;;;;;0.70;0.60;;;13.90;99.90;;;;;;4968906;28;20318;-67
2023/05/20 02:00:58;;;;;;;0.60;0.50;;;13.80;99.90;;;;;;4967273;28;20206;-67
2023/05/20 02:03:26;;;;;;;0.70;0.60;;;13.80;99.90;;;;;;4966752;28;20280;-65
2023/05/20 02:05:54;;;;;;;0.93;0.57;;;13.70;99.90;;;;;;4965021;28;20273;-65
2023/05/20 02:08:22;;;;;;;1.83;0.60;;;13.70;99.90;;;;;;4966451;28;20223;-66
2023/05/20 02:10:50;;;;;;;0.80;0.70;;;13.70;99.90;;;;;;4967194;28;20221;-67
2023/05/20 02:13:19;;;;;;;0.82;0.80;;;13.60;99.90;;;;;;4964512;28;20217;-65
2023/05/20 02:15:47;;;;;;;0.95;0.80;;;13.70;99.90;;;;;;4967710;28;20223;-67
2023/05/20 02:18:17;;;;;;;0.90;0.70;;;13.70;99.90;;;;;;4968629;28;20234;-66
2023/05/20 02:20:45;;;;;;;0.60;0.50;;;13.60;99.90;;;;;;4967966;28;20214;-66
2023/05/20 02:23:13;;;;;;;1.17;1.08;;;13.60;99.90;;;;;;4966300;28;20206;-67
2023/05/20 02:25:41;;;;;;;0.70;0.65;;;13.60;99.90;;;;;;4966204;28;20222;-68
2023/05/20 02:28:10;;;;;;;1.00;0.82;;;13.60;99.90;;;;;;4967588;28;20639;-66
2023/05/20 02:30:39;;;;;;;0.90;0.70;;;13.60;99.90;;;;;;4966719;28;20202;-65
2023/05/20 02:33:08;;;;;;;1.15;0.70;;;13.60;99.90;;;;;;4966361;28;20218;-65
2023/05/20 02:35:36;;;;;;;0.60;0.50;;;13.50;99.90;;;;;;4968480;28;20757;-66
2023/05/20 02:38:04;;;;;;;1.60;0.82;;;13.50;99.90;;;;;;4966237;28;20231;-65
2023/05/20 02:40:33;;;;;;;0.60;0.60;;;13.50;99.90;;;;;;4967741;28;20203;-65
2023/05/20 02:43:01;;;;;;;1.20;0.70;;;13.60;99.90;;;;;;4967062;28;20310;-66
2023/05/20 02:45:29;;;;;;;0.65;0.55;;;13.60;99.90;;;;;;4968257;28;20771;-66
2023/05/20 02:47:58;;;;;;;1.02;0.80;;;13.60;99.90;;;;;;4965691;28;20706;-66
2023/05/20 02:50:27;;;;;;;1.30;1.20;;;13.60;99.90;;;;;;4965789;28;20696;-66
2023/05/20 02:52:56;;;;;;;0.70;0.63;;;13.60;99.90;;;;;;4967079;28;20217;-66
2023/05/20 02:55:24;;;;;;;0.75;0.63;;;13.60;99.90;;;;;;4968018;28;20219;-64
2023/05/20 02:57:52;;;;;;;0.90;0.60;;;13.70;99.90;;;;;;4969121;28;20290;-66
2023/05/20 03:00:22;;;;;;;0.60;0.43;;;13.70;99.90;;;;;;4971895;28;20214;-66
2023/05/20 03:02:49;;;;;;;0.70;0.70;;;13.70;99.90;;;;;;4970303;28;20210;-66
2023/05/20 03:05:19;;;;;;;0.60;0.50;;;13.70;99.90;;;;;;4970916;28;20306;-66
2023/05/20 03:07:47;;;;;;;0.60;0.40;;;13.70;99.90;;;;;;4970688;28;20237;-66
2023/05/20 03:10:15;;;;;;;1.17;0.68;;;13.70;99.90;;;;;;4971383;28;20217;-66
2023/05/20 03:12:43;;;;;;;0.60;0.50;;;13.80;99.90;;;;;;4970301;28;20207;-66
2023/05/20 03:15:12;;;;;;;0.65;0.50;;;13.80;99.90;;;;;;4970555;28;20230;-66
2023/05/20 03:17:40;;;;;;;1.05;0.88;;;13.80;99.90;;;;;;4969773;28;20234;-66
2023/05/20 03:20:09;;;;;;;0.70;0.50;;;13.80;99.90;;;;;;4969636;28;20226;-66
2023/05/20 03:22:38;;;;;;;0.73;0.73;;;13.80;99.90;;;;;;4970501;28;20330;-65
2023/05/20 03:25:07;;;;;;;0.60;0.50;;;13.80;99.90;;;;;;4970986;28;20604;-66
2023/05/20 03:27:35;;;;;;;0.60;0.45;;;13.90;99.90;;;;;;4972969;28;20233;-66
2023/05/20 03:30:04;;;;;;;1.13;0.80;;;13.90;99.90;;;;;;4962582;28;20218;-66
2023/05/20 03:32:32;;;;;;;0.77;0.60;;;13.90;99.90;;;;;;4965973;28;20675;-66
2023/05/20 03:35:00;;;;;;;0.70;0.70;;;13.90;99.90;;;;;;4971030;28;20705;-67
2023/05/20 03:37:28;;;;;;;0.70;0.60;;;13.90;99.90;;;;;;4971689;28;20285;-66
2023/05/20 03:39:57;;;;;;;0.60;0.50;;;13.90;99.90;;;;;;4970763;28;20696;-66
2023/05/20 03:42:25;;;;;;;0.98;0.73;;;14.00;99.90;;;;;;4968672;28;20211;-66
2023/05/20 03:44:53;;;;;;;0.60;0.50;;;13.90;99.90;;;;;;4969109;28;20211;-66
2023/05/20 03:47:21;;;;;;;0.82;0.70;;;14.00;99.90;;;;;;4969693;28;20725;-66
2023/05/20 03:49:48;;;;;;;0.73;0.60;;;13.90;99.90;;;;;;4970557;28;20221;-66
2023/05/20 03:52:16;;;;;;;0.80;0.80;;;14.00;99.90;;;;;;4970801;28;20211;-66
2023/05/20 03:54:44;;;;;;;1.08;0.77;;;14.00;99.90;;;;;;4969379;28;20250;-67
2023/05/20 03:57:14;;;;;;;1.00;0.80;;;13.90;99.90;;;;;;4969988;28;20242;-67
2023/05/20 03:59:41;;;;;;;0.75;0.57;;;13.90;99.90;;;;;;4969528;28;20691;-66
2023/05/20 04:02:09;;;;;;;0.68;0.50;;;13.80;99.90;;;;;;4968526;28;20203;-66
2023/05/20 04:04:37;;;;;;;0.70;0.60;;;13.80;99.90;;;;;;4968221;28;20705;-66
2023/05/20 04:07:06;;;;;;;0.60;0.50;;;13.80;99.90;;;;;;4970291;28;20233;-66
2023/05/20 04:09:34;;;;;;;0.60;0.55;;;13.80;99.90;;;;;;4968902;28;20237;-65
2023/05/20 04:12:02;;;;;;;0.80;0.65;;;13.80;99.90;;;;;;4968603;28;20265;-66
2023/05/20 04:14:33;;;;;;;0.70;0.60;;;13.80;99.90;;;;;;4969790;28;20226;-66
2023/05/20 04:17:03;;;;;;;1.08;0.73;;;13.80;99.90;;;;;;4969395;28;20246;-66
2023/05/20 04:19:31;;;;;;;0.70;0.50;;;13.80;99.90;;;;;;4970238;28;20207;-65
2023/05/20 04:21:59;;;;;;;0.82;0.70;;;13.80;99.90;;;;;;4968482;28;20222;-66
2023/05/20 04:24:27;;;;;;;0.60;0.50;;;13.80;99.90;;;;;;4969632;28;20269;-66
2023/05/20 04:26:55;;;;;;;0.70;0.63;;;13.80;99.90;;;;;;4968748;28;20229;-66
2023/05/20 04:29:23;;;;;;;0.60;0.40;;;13.80;99.90;;;;;;4969435;28;20210;-65
2023/05/20 04:31:53;;;;;;;0.60;0.60;;;13.90;99.90;;;;;;4968317;28;20219;-65
2023/05/20 04:34:25;;;;;;;0.60;0.60;;;13.90;99.90;;;;;;4969964;28;20793;-66
2023/05/20 04:36:53;;;;;;;0.80;0.60;;;13.90;99.90;;;;;;4968711;28;20246;-65
2023/05/20 04:39:21;;;;;;;0.80;0.60;;;13.90;99.90;;;;;;4971585;28;20211;-65
2023/05/20 04:41:49;;;;;;;0.85;0.85;;;13.90;99.90;;;;;;4972298;28;20210;-65
2023/05/20 04:44:17;;;;;;;1.13;0.70;;;13.90;99.90;;;;;;4972504;28;20697;-66
2023/05/20 04:46:45;;;;;;;1.55;0.70;;;14.00;99.90;;;;;;4972050;28;20265;-67
2023/05/20 04:49:15;;;;;;;0.80;0.65;;;14.00;99.90;;;;;;4969724;28;20215;-66
2023/05/20 04:51:42;;;;;;;0.70;0.60;;;14.00;99.90;;;;;;4962279;28;20203;-65
2023/05/20 04:54:10;;;;;;;0.75;0.75;;;14.00;99.90;;;;;;4968497;28;20210;-65
2023/05/20 04:56:39;;;;;;;0.70;0.60;;;14.00;99.90;;;;;;4970994;28;20231;-66
2023/05/20 04:59:08;;;;;;;0.55;0.40;;;14.10;99.90;;;;;;4969690;28;20202;-66
2023/05/20 05:01:36;;;;;;;0.82;0.50;;;14.10;99.90;;;;;;4958149;28;20213;-65
2023/05/20 05:04:05;;;;;;;0.73;0.57;;;14.10;99.90;;;;;;4961943;28;20202;-65
2023/05/20 05:06:34;;;;;;;0.70;0.70;;;14.10;99.90;;;;;;4971253;28;20199;-65
2023/05/20 05:09:02;;;;;;;0.60;0.50;;;14.10;99.90;;;;;;4969570;28;20215;-66
2023/05/20 05:11:30;;;;;;;1.25;1.15;;;14.10;99.90;;;;;;4969329;28;20207;-66
2023/05/20 05:13:58;;;;;;;1.33;0.90;;;14.10;99.90;;;;;;4969810;28;20578;-65
2023/05/20 05:16:26;;;;;;;1.05;0.50;;;14.10;99.90;;;;;;4970735;28;20226;-65
2023/05/20 05:18:54;;;;;;;0.70;0.63;;;14.10;99.90;;;;;;4967241;28;20351;-66
2023/05/20 05:21:22;;;;;;;1.33;1.05;;;14.10;99.90;;;;;;4967447;28;20587;-65
2023/05/20 05:23:51;;;;;;;1.60;0.60;;;14.20;99.90;;;;;;4967345;28;20210;-65
2023/05/20 05:26:19;;;;;;;1.00;0.60;;;14.10;99.90;;;;;;4968817;28;20206;-65
2023/05/20 05:28:47;;;;;;;1.60;0.95;;;14.20;99.90;;;;;;4967964;28;20218;-66
2023/05/20 05:31:15;;;;;;;0.80;0.80;;;14.20;99.90;;;;;;4969091;28;20582;-66
2023/05/20 05:33:43;;;;;;;0.70;0.60;;;14.30;99.90;;;;;;4968474;28;20606;-68
2023/05/20 05:36:11;;;;;;;2.25;0.75;;;14.30;99.90;;;;;;4968140;28;20226;-66
2023/05/20 05:38:39;;;;;;;0.90;0.77;;;14.30;99.90;;;;;;4968303;28;20230;-64
2023/05/20 05:41:08;;;;;;;1.10;1.00;;;14.40;99.90;;;;;;4970597;28;20207;-65
2023/05/20 05:43:36;;;;;;;1.25;0.90;;;14.50;99.90;;;;;;4967302;28;20206;-65
2023/05/20 05:46:05;;;;;;;0.70;0.70;;;14.70;99.90;;;;;;4969053;28;20277;-64
2023/05/20 05:48:33;;;;;;;1.08;0.85;;;14.90;99.90;;;;;;4968629;28;20222;-65
2023/05/20 05:51:01;;;;;;;0.60;0.60;;;15.20;99.90;;;;;;4970256;28;20242;-67
2023/05/20 05:53:29;;;;;;;0.80;0.73;;;15.30;99.90;;;;;;4969653;28;20618;-67
2023/05/20 05:55:56;;;;;;;1.38;1.10;;;15.50;99.90;;;;;;4970131;28;20768;-65
2023/05/20 05:58:26;;;;;;;0.70;0.70;;;15.60;99.90;;;;;;4970606;28;20238;-64
2023/05/20 06:00:54;;;;;;;1.83;1.73;;;15.50;99.90;;;;;;4968510;28;20210;-65
2023/05/20 06:03:22;;;;;;;0.70;0.60;;;15.50;99.90;;;;;;4965293;28;20215;-65
2023/05/20 06:05:50;;;;;;;0.70;0.50;;;15.50;99.90;;;;;;4970836;28;20289;-65
2023/05/20 06:08:18;;;;;;;0.70;0.70;;;15.40;99.90;;;;;;4971730;28;20237;-65
2023/05/20 06:10:47;;;;;;;0.60;0.57;;;15.30;99.90;;;;;;4971393;28;20198;-65
2023/05/20 06:13:15;;;;;;;0.95;0.90;;;15.30;99.90;;;;;;4971557;28;20261;-64
2023/05/20 06:15:45;;;;;;;0.63;0.47;;;15.20;99.90;;;;;;4971309;28;20203;-64
2023/05/20 06:18:13;;;;;;;1.50;1.40;;;15.30;99.90;;;;;;4971155;28;20230;-65
2023/05/20 06:20:41;;;;;;;0.93;0.73;;;15.50;99.90;;;;;;4970984;28;20207;-65
2023/05/20 06:23:09;;;;;;;0.75;0.75;;;15.70;99.90;;;;;;4971054;28;20613;-65
2023/05/20 06:25:37;;;;;;;0.60;0.40;;;15.70;99.90;;;;;;4971210;28;20203;-65
2023/05/20 06:28:05;;;;;;;0.80;0.80;;;15.70;99.90;;;;;;4970518;28;20332;-64
2023/05/20 06:30:33;;;;;;;0.60;0.50;;;15.60;99.90;;;;;;4971430;28;20214;-65
2023/05/20 06:33:02;;;;;;;0.82;0.80;;;15.60;99.90;;;;;;4974622;28;20222;-64
2023/05/20 06:35:30;;;;;;;0.77;0.65;;;15.60;99.90;;;;;;4974737;28;20211;-64
2023/05/20 06:37:59;;;;;;;0.60;0.60;;;15.60;99.90;;;;;;4972015;28;20765;-65
2023/05/20 06:40:28;;;;;;;1.00;0.90;;;15.50;99.90;;;;;;4974557;28;20207;-65
2023/05/20 06:42:56;;;;;;;1.05;0.70;;;15.40;99.90;;;;;;4974625;28;20206;-66
2023/05/20 06:45:23;;;;;;;0.85;0.77;;;15.40;99.90;;;;;;4974616;28;20572;-67
2023/05/20 06:47:53;;;;;;;0.60;0.50;;;15.60;99.90;;;;;;4974533;28;20230;-65
2023/05/20 06:50:22;;;;;;;0.63;0.60;;;15.60;99.90;;;;;;4974723;28;20375;-66
2023/05/20 06:52:50;;;;;;;1.17;0.80;;;15.70;99.90;;;;;;4973977;28;20654;-65
2023/05/20 06:55:18;;;;;;;1.20;1.10;;;15.80;99.90;;;;;;4974275;28;20630;-65
2023/05/20 06:57:46;;;;;;;1.25;1.05;;;15.90;99.90;;;;;;4971228;28;20241;-65
2023/05/20 07:00:14;;;;;;;0.60;0.50;;;15.80;99.90;;;;;;4971504;28;20210;-65
2023/05/20 07:02:43;;;;;;;1.08;0.70;;;15.80;99.90;;;;;;4969712;28;20262;-65
2023/05/20 07:05:11;;;;;;;2.72;0.70;;;15.80;99.90;;;;;;4969531;28;20227;-66
2023/05/20 07:07:40;;;;;;;0.60;0.60;;;15.90;99.90;;;;;;4970747;28;20309;-65
2023/05/20 07:10:09;;;;;;;0.85;0.70;;;15.90;99.90;;;;;;4970952;28;20615;-66
2023/05/20 07:12:37;;;;;;;1.17;0.50;;;15.90;99.90;;;;;;4968761;28;20203;-64
2023/05/20 07:15:05;;;;;;;0.70;0.60;;;15.80;99.90;;;;;;4971997;28;20202;-65
2023/05/20 07:17:33;;;;;;;1.15;1.05;;;15.80;99.90;;;;;;4969297;28;20234;-64
2023/05/20 07:20:01;;;;;;;0.98;0.95;;;15.70;99.90;;;;;;4983325;28;20210;-65
2023/05/20 07:22:30;;;;;;;1.00;0.90;;;15.70;99.90;;;;;;4977482;28;20214;-65
2023/05/20 07:25:00;;;;;;;0.60;0.40;;;15.70;99.90;;;;;;4972890;28;20623;-65
2023/05/20 07:27:28;;;;;;;1.05;0.93;;;15.70;99.90;;;;;;4966768;28;20971;-65
2023/05/20 07:29:56;;;;;;;0.80;0.80;;;15.70;99.90;;;;;;4966621;28;20207;-63
2023/05/20 07:32:23;;;;;;;0.80;0.80;;;15.70;99.90;;;;;;4953768;28;20215;-65
2023/05/20 07:34:52;;;;;;;1.35;0.80;;;15.60;99.90;;;;;;4967645;28;20666;-64
2023/05/20 07:37:20;;;;;;;1.05;0.95;;;15.60;99.90;;;;;;4958940;28;20296;-65
2023/05/20 07:39:47;;;;;;;1.35;1.25;;;15.70;99.90;;;;;;4961823;28;20225;-65
2023/05/20 07:42:17;;;;;;;1.08;0.85;;;15.60;99.90;;;;;;4963927;28;20209;-65
2023/05/20 07:44:45;;;;;;;0.60;0.55;;;15.70;99.90;;;;;;4969892;28;20273;-66
2023/05/20 07:47:13;;;;;;;0.70;0.70;;;15.70;99.90;;;;;;4971003;28;20335;-65
2023/05/20 07:49:43;;;;;;;3.58;1.10;;;15.80;99.90;;;;;;4969459;28;20262;-65
2023/05/20 07:52:11;;;;;;;1.55;1.45;;;15.80;99.90;;;;;;4971012;28;20215;-65
2023/05/20 07:54:38;;;;;;;1.20;0.77;;;15.80;99.90;;;;;;4968610;28;20215;-65
2023/05/20 07:57:06;;;;;;;1.20;1.05;;;15.80;99.90;;;;;;4969130;28;20238;-65
2023/05/20 07:59:36;;;;;;;0.88;0.70;;;15.90;99.90;;;;;;4968567;28;20207;-65
2023/05/20 08:02:04;;;;;;;1.30;0.65;;;16.00;99.90;;;;;;4968040;28;20701;-66
2023/05/20 08:04:33;;;;;;;1.13;1.02;;;16.00;99.90;;;;;;4969261;28;20241;-66
2023/05/20 08:07:02;;;;;;;1.40;1.30;;;16.10;99.90;;;;;;4968181;28;20705;-65
2023/05/20 08:09:31;;;;;;;0.70;0.60;;;16.30;99.90;;;;;;4971385;28;20210;-65
2023/05/20 08:11:59;;;;;;;1.40;0.93;;;16.40;99.90;;;;;;4970204;28;20203;-65
2023/05/20 08:14:27;;;;;;;0.90;0.90;;;16.60;99.90;;;;;;4969224;28;20207;-66
2023/05/20 08:16:56;;;;;;;0.88;0.88;;;16.60;99.90;;;;;;4969237;28;20233;-66
2023/05/20 08:19:24;;;;;;;0.80;0.57;;;16.70;99.90;;;;;;4968194;28;20233;-66
2023/05/20 08:21:53;;;;;;;1.20;1.10;;;16.90;99.90;;;;;;4968670;28;20214;-65
2023/05/20 08:24:21;;;;;;;1.23;1.13;;;17.00;99.90;;;;;;4967160;28;20220;-67
2023/05/20 08:26:49;;;;;;;1.63;0.90;;;17.20;99.90;;;;;;4968577;28;20226;-65
2023/05/20 08:29:17;;;;;;;1.70;0.68;;;17.30;99.90;;;;;;4968783;28;20202;-66
2023/05/20 08:31:45;;;;;;;0.70;0.70;;;17.40;99.90;;;;;;4968684;28;20897;-65
2023/05/20 08:34:14;;;;;;;1.02;0.77;;;17.90;99.90;;;;;;4968329;28;20202;-65
2023/05/20 08:36:44;;;;;;;1.80;1.27;;;18.20;99.90;;;;;;4969311;28;20599;-66
2023/05/20 08:39:11;;;;;;;1.17;1.00;;;18.70;99.90;;;;;;4970489;28;20223;-65
2023/05/20 08:41:39;;;;;;;0.70;0.70;;;19.00;99.90;;;;;;4969813;28;20281;-65
2023/05/20 08:44:09;;;;;;;1.35;0.90;;;18.90;99.90;;;;;;4970180;28;20207;-66
2023/05/20 08:46:39;;;;;;;1.60;0.90;;;18.70;99.90;;;;;;4968560;28;20744;-66
2023/05/20 08:49:07;;;;;;;1.02;0.90;;;18.70;99.90;;;;;;4973161;28;20288;-66
2023/05/20 08:51:37;;;;;;;1.30;0.98;;;18.50;99.90;;;;;;4968140;28;20215;-66
2023/05/20 08:54:06;;;;;;;0.82;0.65;;;18.30;99.90;;;;;;4957962;28;20214;-65
2023/05/20 08:56:35;;;;;;;0.70;0.60;;;18.20;99.90;;;;;;4969240;28;20206;-65
2023/05/20 08:59:04;;;;;;;0.70;0.60;;;18.10;99.90;;;;;;4960376;28;20230;-65
2023/05/20 09:01:32;;;;;;;1.80;1.70;;;18.20;99.90;;;;;;4958650;28;20217;-65
2023/05/20 09:04:00;;;;;;;1.17;1.08;;;18.20;99.90;;;;;;4960037;28;20560;-65
2023/05/20 09:06:28;;;;;;;1.23;1.13;;;18.30;99.90;;;;;;4963264;28;20223;-65
2023/05/20 09:09:00;;;;;;;0.93;0.80;;;18.50;99.90;;;;;;4955222;28;20208;-65
2023/05/20 09:11:29;;;;;;;0.73;0.70;;;18.40;99.90;;;;;;4956778;28;20218;-65
2023/05/20 09:13:57;;;;;;;1.10;1.00;;;18.50;99.90;;;;;;4965836;28;20209;-65
2023/05/20 09:16:25;;;;;;;0.70;0.63;;;18.50;99.90;;;;;;4961775;28;20566;-65
2023/05/20 09:18:55;;;;;;;1.35;1.10;;;18.50;99.90;;;;;;4962319;28;20949;-65
2023/05/20 09:21:26;;;;;;;0.70;0.70;;;18.40;99.90;;;;;;4956496;28;20252;-65
2023/05/20 09:23:56;;;;;;;0.60;0.60;;;18.20;99.90;;;;;;4956979;28;20215;-66
2023/05/20 09:26:27;;;;;;;1.75;1.60;;;18.40;99.90;;;;;;4971251;28;20674;-65
2023/05/20 09:28:56;;;;;;;1.40;1.17;;;18.50;99.90;;;;;;4957089;28;20230;-65
2023/05/20 09:31:26;;;;;;;1.13;1.02;;;18.70;99.90;;;;;;4955394;28;20203;-65
2023/05/20 09:33:55;;;;;;;1.08;0.88;;;18.70;99.90;;;;;;4955132;28;20391;-65
2023/05/20 09:36:23;;;;;;;2.33;1.00;;;19.10;99.90;;;;;;4958757;28;20567;-66
2023/05/20 09:38:53;;;;;;;2.03;1.15;;;19.60;99.90;;;;;;4956464;28;20223;-65
2023/05/20 09:41:26;;;;;;;0.60;0.60;;;19.80;99.90;;;;;;4965329;28;20203;-66
2023/05/20 09:43:54;;;;;;;1.08;0.70;;;20.20;99.90;;;;;;4955995;28;20744;-65
2023/05/20 09:46:22;;;;;;;0.82;0.82;;;20.70;99.90;;;;;;4957626;28;20266;-66
2023/05/20 09:48:51;;;;;;;1.70;1.00;;;20.90;99.90;;;;;;4957417;28;20747;-66
2023/05/20 09:51:22;;;;;;;1.38;1.10;;;21.20;99.90;;;;;;4964403;28;20214;-66
2023/05/20 09:53:51;;;;;;;1.20;1.02;;;21.40;99.90;;;;;;4962819;28;20271;-65
2023/05/20 09:56:20;;;;;;;1.42;0.90;;;21.60;99.90;;;;;;4952444;28;20211;-65
2023/05/20 09:58:51;;;;;;;2.58;0.80;;;21.70;99.90;;;;;;4955921;28;20639;-66
2023/05/20 10:01:19;;;;;;;0.70;0.60;;;21.70;99.90;;;;;;4952982;28;20269;-67
2023/05/20 10:03:47;;;;;;;0.80;0.75;;;21.60;99.90;;;;;;4954407;28;20208;-65
2023/05/20 10:06:40;;;;;;;1.52;1.25;;;21.40;99.90;;;;;;4961030;28;20211;-65
2023/05/20 10:09:36;;;;;;;1.38;1.13;;;21.40;99.90;;;;;;4964359;28;20204;-65
2023/05/20 10:12:13;;;;;;;1.10;1.00;;;21.60;99.90;;;;;;4954930;28;20224;-65
2023/05/20 10:14:55;;;;;;;0.90;0.80;;;21.60;99.90;;;;;;4970792;28;20582;-65
2023/05/20 10:17:28;;;;;;;0.73;0.65;;;21.40;99.90;;;;;;4965943;28;20226;-65
2023/05/20 10:20:00;;;;;;;0.77;0.77;;;21.40;99.90;;;;;;4963141;28;20228;-65
2023/05/20 10:22:30;;;;;;;0.70;0.60;;;21.20;99.90;;;;;;4966069;28;20204;-65
2023/05/20 10:24:59;;;;;;;0.75;0.73;;;21.30;99.90;;;;;;4972696;28;20211;-65
2023/05/20 10:27:27;;;;;;;0.70;0.60;;;21.40;99.90;;;;;;4969037;28;20224;-65
2023/05/20 10:29:57;;;;;;;0.73;0.73;;;21.70;99.90;;;;;;4974765;28;20211;-65
2023/05/20 10:32:26;;;;;;;0.80;0.80;;;21.90;99.90;;;;;;4956969;28;20214;-65
2023/05/20 10:35:00;;;;;;;0.93;0.90;;;22.10;99.90;;;;;;4973987;28;20223;-66
2023/05/20 10:37:30;;;;;;;1.77;1.35;;;22.20;99.90;;;;;;4974807;28;20583;-66
2023/05/20 10:40:09;;;;;;;1.98;0.70;;;22.40;99.90;;;;;;4974681;28;20293;-65
2023/05/20 10:42:38;;;;;;;0.80;0.70;;;22.50;99.90;;;;;;4968212;28;20588;-65
2023/05/20 10:45:09;;;;;;;0.90;0.70;;;22.70;99.90;;;;;;4974337;28;20581;-66
2023/05/20 10:47:42;;;;;;;0.85;0.85;;;22.40;99.90;;;;;;4974322;28;20228;-66
2023/05/20 10:50:26;;;;;;;1.45;1.17;;;21.90;99.90;;;;;;4971994;28;20980;-65
2023/05/20 10:52:54;;;;;;;1.33;1.17;;;21.80;99.90;;;;;;4966828;28;20663;-64
2023/05/20 10:55:22;;;;;;;1.00;0.85;;;21.70;99.90;;;;;;4969980;28;20230;-65
2023/05/20 10:57:51;;;;;;;0.80;0.70;;;21.50;99.90;;;;;;4971396;28;20250;-64
2023/05/20 11:00:21;;;;;;;1.17;1.08;;;21.30;99.90;;;;;;4968509;28;20254;-66
2023/05/20 11:02:50;;;;;;;1.00;0.85;;;21.50;99.90;;;;;;4974851;28;20207;-64
2023/05/20 11:05:18;;;;;;;0.85;0.50;;;21.60;99.90;;;;;;4969983;28;20629;-64
2023/05/20 11:07:46;;;;;;;1.15;1.02;;;21.70;99.90;;;;;;4971888;28;20232;-65
2023/05/20 11:10:14;;;;;;;2.95;1.05;;;21.40;99.90;;;;;;4973723;28;20215;-66
2023/05/20 11:12:42;;;;;;;1.33;1.23;;;21.20;99.90;;;;;;4974051;28;20271;-65
2023/05/20 11:15:12;;;;;;;1.23;1.10;;;21.40;99.90;;;;;;4973879;28;20215;-65
2023/05/20 11:17:54;;;;;;;1.70;1.60;;;21.30;99.90;;;;;;4968275;28;20227;-65
2023/05/20 11:20:23;;;;;;;1.63;0.85;;;21.20;99.90;;;;;;4965554;28;20231;-65
2023/05/20 11:22:51;;;;;;;0.80;0.80;;;21.30;99.90;;;;;;4971115;28;20208;-67
2023/05/20 11:25:22;;;;;;;1.23;0.93;;;21.30;99.90;;;;;;4968557;28;20226;-66
2023/05/20 11:27:50;;;;;;;1.27;1.17;;;21.30;99.90;;;;;;4969843;28;20231;-65
2023/05/20 11:30:19;;;;;;;0.95;0.85;;;21.20;99.90;;;;;;4970285;28;20205;-65
2023/05/20 11:32:58;;;;;;;1.40;0.95;;;21.70;99.90;;;;;;4967186;28;20666;-68
2023/05/20 11:35:29;;;;;;;0.85;0.75;;;22.00;99.90;;;;;;4969339;28;20211;-64
2023/05/20 11:37:58;;;;;;;1.08;0.70;;;22.10;99.90;;;;;;4966929;28;20240;-64
2023/05/20 11:40:26;;;;;;;1.40;1.30;;;22.40;99.90;;;;;;4968085;28;20219;-65
2023/05/20 11:43:06;;;;;;;1.05;0.70;;;22.40;99.90;;;;;;4968529;28;20207;-67
2023/05/20 11:45:40;;;;;;;1.70;1.50;;;22.10;99.90;;;;;;4969621;28;20203;-64
2023/05/20 11:48:10;;;;;;;1.00;0.90;;;21.90;99.90;;;;;;4966280;28;20227;-65
2023/05/20 11:50:40;;;;;;;0.98;0.75;;;21.90;99.90;;;;;;4968599;28;20200;-65
2023/05/20 11:53:10;;;;;;;0.70;0.70;;;21.80;99.90;;;;;;4968541;28;20213;-64
2023/05/20 11:55:46;;;;;;;1.08;1.08;;;22.10;99.90;;;;;;4970420;28;20236;-64
2023/05/20 11:58:16;;;;;;;1.33;0.90;;;22.20;99.90;;;;;;4965760;28;20708;-65
2023/05/20 12:00:45;;;;;;;1.05;1.02;;;22.10;99.90;;;;;;4967372;28;20228;-65
2023/05/20 12:03:25;;;;;;;1.30;1.20;;;22.20;99.90;;;;;;4959875;28;20210;-66
2023/05/20 12:05:53;;;;;;;0.65;0.60;;;22.50;99.90;;;;;;4965107;28;20211;-66
2023/05/20 12:08:21;;;;;;;1.23;1.00;;;22.90;99.90;;;;;;4968069;28;20227;-66
2023/05/20 12:10:49;;;;;;;1.20;1.10;;;22.50;99.90;;;;;;4968786;28;20203;-66
2023/05/20 12:13:18;;;;;;;0.85;0.77;;;22.40;99.90;;;;;;4967670;28;20685;-66
2023/05/20 12:15:46;;;;;;;0.93;0.80;;;22.70;99.90;;;;;;4967887;28;20299;-65
2023/05/20 12:18:14;;;;;;;0.85;0.77;;;22.70;99.90;;;;;;4967513;28;20742;-66
2023/05/20 12:20:43;;;;;;;0.90;0.82;;;22.50;99.90;;;;;;4968525;28;20232;-66
2023/05/20 12:23:11;;;;;;;0.75;0.65;;;22.20;99.90;;;;;;4965687;28;20208;-65
2023/05/20 12:25:39;;;;;;;1.02;1.02;;;22.10;99.90;;;;;;4969479;28;20235;-65
2023/05/20 12:28:07;;;;;;;1.77;0.98;;;22.10;99.90;;;;;;4971166;28;20232;-66
2023/05/20 12:30:35;;;;;;;1.38;0.70;;;22.20;99.90;;;;;;4969363;28;20203;-67
2023/05/20 12:33:03;;;;;;;1.65;1.02;;;22.20;99.90;;;;;;4970463;28;20246;-65
2023/05/20 12:35:37;;;;;;;0.70;0.60;;;22.40;99.90;;;;;;4965906;28;20200;-66
2023/05/20 12:38:07;;;;;;;0.60;0.55;;;22.80;99.90;;;;;;4969105;28;20230;-65
2023/05/20 12:40:36;;;;;;;0.80;0.80;;;22.90;99.90;;;;;;4966981;28;20240;-66
2023/05/20 12:43:05;;;;;;;1.13;0.93;;;22.60;99.90;;;;;;4966615;28;20213;-66
2023/05/20 12:45:34;;;;;;;0.80;0.80;;;22.80;99.90;;;;;;4970598;28;20746;-66
2023/05/20 12:48:02;;;;;;;1.10;1.00;;;23.00;99.90;;;;;;4966966;28;20229;-65
2023/05/20 12:50:30;;;;;;;1.73;1.40;;;22.80;99.90;;;;;;4967482;28;20231;-66
2023/05/20 12:52:58;;;;;;;3.35;1.02;;;22.70;99.90;;;;;;4967183;28;20269;-65
2023/05/20 12:55:27;;;;;;;1.65;1.55;;;22.60;99.90;;;;;;4964055;28;20448;-66
2023/05/20 12:57:55;;;;;;;1.02;1.02;;;22.90;99.90;;;;;;4971936;28;20254;-66